sensor_id;sensor_type;location;lat;lon;timestamp;temperature;humidity
46752;DHT22;32497;48.936;9.270;2022-08-16T00:00:46;18.20;75.40
46752;DHT22;32497;48.936;9.270;2022-08-16T00:05:47;18.10;75.10
46752;DHT22;32497;48.936;9.270;2022-08-16T00:10:50;18.10;75.70
46752;DHT22;32497;48.936;9.270;2022-08-16T00:15:51;18.20;75.20
46752;DHT22;32497;48.936;9.270;2022-08-16T00:20:52;18.00;75.70
46752;DHT22;32497;48.936;9.270;2022-08-16T00:25:55;18.20;75.10
46752;DHT22;32497;48.936;9.270;2022-08-16T00:30:56;18.00;75.90
46752;DHT22;32497;48.936;9.270;2022-08-16T00:35:57;18.10;75.90
46752;DHT22;32497;48.936;9.270;2022-08-16T00:41:00;18.10;75.70
46752;DHT22;32497;48.936;9.270;2022-08-16T00:46:11;18.20;75.60
46752;DHT22;32497;48.936;9.270;2022-08-16T00:51:14;18.10;75.40
46752;DHT22;32497;48.936;9.270;2022-08-16T00:56:20;18.30;75.40
46752;DHT22;32497;48.936;9.270;2022-08-16T01:01:21;18.30;74.80
46752;DHT22;32497;48.936;9.270;2022-08-16T01:06:23;18.40;75.00
46752;DHT22;32497;48.936;9.270;2022-08-16T01:11:26;18.50;74.40
46752;DHT22;32497;48.936;9.270;2022-08-16T01:16:28;18.50;74.10
46752;DHT22;32497;48.936;9.270;2022-08-16T01:21:36;18.20;74.70
46752;DHT22;32497;48.936;9.270;2022-08-16T01:26:40;18.10;74.80
46752;DHT22;32497;48.936;9.270;2022-08-16T01:31:42;18.10;75.20
46752;DHT22;32497;48.936;9.270;2022-08-16T01:36:43;18.00;75.80
46752;DHT22;32497;48.936;9.270;2022-08-16T01:41:47;17.90;75.80
46752;DHT22;32497;48.936;9.270;2022-08-16T01:46:49;18.10;75.70
46752;DHT22;32497;48.936;9.270;2022-08-16T01:51:57;18.30;75.20
46752;DHT22;32497;48.936;9.270;2022-08-16T01:57:23;18.20;75.00
46752;DHT22;32497;48.936;9.270;2022-08-16T02:02:26;18.00;75.40
46752;DHT22;32497;48.936;9.270;2022-08-16T02:07:27;18.10;75.40
46752;DHT22;32497;48.936;9.270;2022-08-16T02:12:31;17.80;76.00
46752;DHT22;32497;48.936;9.270;2022-08-16T02:17:32;17.80;75.90
46752;DHT22;32497;48.936;9.270;2022-08-16T02:22:33;17.80;76.20
46752;DHT22;32497;48.936;9.270;2022-08-16T02:27:37;17.80;76.10
46752;DHT22;32497;48.936;9.270;2022-08-16T02:32:38;17.70;76.70
46752;DHT22;32497;48.936;9.270;2022-08-16T02:37:40;17.70;76.70
46752;DHT22;32497;48.936;9.270;2022-08-16T02:42:43;17.70;76.80
46752;DHT22;32497;48.936;9.270;2022-08-16T02:47:44;17.60;76.60
46752;DHT22;32497;48.936;9.270;2022-08-16T02:52:45;17.60;77.00
46752;DHT22;32497;48.936;9.270;2022-08-16T02:57:48;17.40;77.70
46752;DHT22;32497;48.936;9.270;2022-08-16T03:02:49;17.40;77.50
46752;DHT22;32497;48.936;9.270;2022-08-16T03:07:53;17.20;77.50
46752;DHT22;32497;48.936;9.270;2022-08-16T03:12:56;16.80;79.30
46752;DHT22;32497;48.936;9.270;2022-08-16T03:17:57;16.60;80.00
46752;DHT22;32497;48.936;9.270;2022-08-16T03:23:02;16.70;80.50
46752;DHT22;32497;48.936;9.270;2022-08-16T03:28:06;16.90;79.90
46752;DHT22;32497;48.936;9.270;2022-08-16T03:33:08;16.90;79.20
46752;DHT22;32497;48.936;9.270;2022-08-16T03:38:15;16.70;80.10
46752;DHT22;32497;48.936;9.270;2022-08-16T03:43:22;16.70;80.00
46752;DHT22;32497;48.936;9.270;2022-08-16T03:48:27;16.60;80.10
46752;DHT22;32497;48.936;9.270;2022-08-16T03:53:29;16.40;80.80
46752;DHT22;32497;48.936;9.270;2022-08-16T03:58:32;16.30;81.20
46752;DHT22;32497;48.936;9.270;2022-08-16T04:03:34;16.20;81.40
46752;DHT22;32497;48.936;9.270;2022-08-16T04:08:36;16.20;81.30
46752;DHT22;32497;48.936;9.270;2022-08-16T04:13:38;16.40;81.40
46752;DHT22;32497;48.936;9.270;2022-08-16T04:18:39;16.30;81.20
46752;DHT22;32497;48.936;9.270;2022-08-16T04:23:41;16.20;81.20
46752;DHT22;32497;48.936;9.270;2022-08-16T04:28:44;16.30;81.30
46752;DHT22;32497;48.936;9.270;2022-08-16T04:33:46;16.40;80.70
46752;DHT22;32497;48.936;9.270;2022-08-16T04:38:47;16.30;81.10
46752;DHT22;32497;48.936;9.270;2022-08-16T04:43:50;16.20;81.30
46752;DHT22;32497;48.936;9.270;2022-08-16T04:48:52;16.20;81.70
46752;DHT22;32497;48.936;9.270;2022-08-16T04:53:53;16.30;81.50
46752;DHT22;32497;48.936;9.270;2022-08-16T04:58:56;16.30;81.50
46752;DHT22;32497;48.936;9.270;2022-08-16T05:03:57;16.40;81.30
46752;DHT22;32497;48.936;9.270;2022-08-16T05:08:58;16.80;81.00
46752;DHT22;32497;48.936;9.270;2022-08-16T05:14:01;17.40;79.20
46752;DHT22;32497;48.936;9.270;2022-08-16T05:19:02;17.80;77.60
46752;DHT22;32497;48.936;9.270;2022-08-16T05:24:07;17.80;77.80
46752;DHT22;32497;48.936;9.270;2022-08-16T05:29:11;18.20;76.70
46752;DHT22;32497;48.936;9.270;2022-08-16T05:34:15;18.40;75.90
46752;DHT22;32497;48.936;9.270;2022-08-16T05:39:16;18.40;75.80
46752;DHT22;32497;48.936;9.270;2022-08-16T05:44:20;18.30;75.90
46752;DHT22;32497;48.936;9.270;2022-08-16T05:49:22;18.60;75.30
46752;DHT22;32497;48.936;9.270;2022-08-16T05:54:27;18.80;74.50
46752;DHT22;32497;48.936;9.270;2022-08-16T05:59:33;18.90;74.60
46752;DHT22;32497;48.936;9.270;2022-08-16T06:04:36;19.40;73.60
46752;DHT22;32497;48.936;9.270;2022-08-16T06:09:39;19.60;72.20
46752;DHT22;32497;48.936;9.270;2022-08-16T06:14:43;19.50;72.30
46752;DHT22;32497;48.936;9.270;2022-08-16T06:19:44;19.40;72.10
46752;DHT22;32497;48.936;9.270;2022-08-16T06:24:48;19.00;73.40
46752;DHT22;32497;48.936;9.270;2022-08-16T06:29:50;19.10;73.30
46752;DHT22;32497;48.936;9.270;2022-08-16T06:34:54;19.20;72.20
46752;DHT22;32497;48.936;9.270;2022-08-16T06:39:55;19.30;72.40
46752;DHT22;32497;48.936;9.270;2022-08-16T06:45:04;19.50;72.70
46752;DHT22;32497;48.936;9.270;2022-08-16T06:50:17;19.30;71.80
46752;DHT22;32497;48.936;9.270;2022-08-16T06:55:22;19.30;72.90
46752;DHT22;32497;48.936;9.270;2022-08-16T07:00:29;19.80;71.20
46752;DHT22;32497;48.936;9.270;2022-08-16T07:05:36;20.20;70.00
46752;DHT22;32497;48.936;9.270;2022-08-16T07:10:54;20.80;68.50
46752;DHT22;32497;48.936;9.270;2022-08-16T07:15:57;20.90;68.50
46752;DHT22;32497;48.936;9.270;2022-08-16T07:21:01;21.10;67.30
46752;DHT22;32497;48.936;9.270;2022-08-16T07:26:05;20.70;67.50
46752;DHT22;32497;48.936;9.270;2022-08-16T07:31:09;20.90;68.60
46752;DHT22;32497;48.936;9.270;2022-08-16T07:36:15;21.30;66.50
46752;DHT22;32497;48.936;9.270;2022-08-16T07:41:20;21.80;64.70
46752;DHT22;32497;48.936;9.270;2022-08-16T07:46:28;22.00;63.90
46752;DHT22;32497;48.936;9.270;2022-08-16T07:51:30;22.50;64.80
46752;DHT22;32497;48.936;9.270;2022-08-16T07:56:31;22.00;61.10
46752;DHT22;32497;48.936;9.270;2022-08-16T08:01:34;21.80;63.70
46752;DHT22;32497;48.936;9.270;2022-08-16T08:06:38;22.30;63.70
46752;DHT22;32497;48.936;9.270;2022-08-16T08:11:47;22.50;61.30
46752;DHT22;32497;48.936;9.270;2022-08-16T08:16:50;22.50;61.10
46752;DHT22;32497;48.936;9.270;2022-08-16T08:21:59;22.70;61.90
46752;DHT22;32497;48.936;9.270;2022-08-16T08:27:09;22.80;61.00
46752;DHT22;32497;48.936;9.270;2022-08-16T08:32:12;22.90;59.40
46752;DHT22;32497;48.936;9.270;2022-08-16T08:37:13;23.20;58.80
46752;DHT22;32497;48.936;9.270;2022-08-16T08:42:16;23.60;58.70
46752;DHT22;32497;48.936;9.270;2022-08-16T08:47:19;23.90;56.20
46752;DHT22;32497;48.936;9.270;2022-08-16T08:52:20;24.20;55.40
46752;DHT22;32497;48.936;9.270;2022-08-16T08:57:21;24.10;55.70
46752;DHT22;32497;48.936;9.270;2022-08-16T09:02:32;24.20;56.20
46752;DHT22;32497;48.936;9.270;2022-08-16T09:07:33;24.90;56.00
46752;DHT22;32497;48.936;9.270;2022-08-16T09:12:35;25.20;54.40
46752;DHT22;32497;48.936;9.270;2022-08-16T09:17:44;25.50;53.00
46752;DHT22;32497;48.936;9.270;2022-08-16T09:22:46;25.10;51.30
46752;DHT22;32497;48.936;9.270;2022-08-16T09:27:47;26.00;52.00
46752;DHT22;32497;48.936;9.270;2022-08-16T09:32:50;26.20;48.00
46752;DHT22;32497;48.936;9.270;2022-08-16T09:37:51;25.80;50.10
46752;DHT22;32497;48.936;9.270;2022-08-16T09:42:52;26.60;49.10
46752;DHT22;32497;48.936;9.270;2022-08-16T09:47:54;27.50;47.20
46752;DHT22;32497;48.936;9.270;2022-08-16T09:52:55;27.50;46.50
46752;DHT22;32497;48.936;9.270;2022-08-16T09:57:56;27.70;46.50
46752;DHT22;32497;48.936;9.270;2022-08-16T10:02:59;27.30;45.40
46752;DHT22;32497;48.936;9.270;2022-08-16T10:08:00;26.70;46.10
46752;DHT22;32497;48.936;9.270;2022-08-16T10:13:02;26.20;47.70
46752;DHT22;32497;48.936;9.270;2022-08-16T10:18:06;26.50;47.80
46752;DHT22;32497;48.936;9.270;2022-08-16T10:23:10;27.20;44.30
46752;DHT22;32497;48.936;9.270;2022-08-16T10:28:12;27.20;46.60
46752;DHT22;32497;48.936;9.270;2022-08-16T10:33:14;27.10;46.30
46752;DHT22;32497;48.936;9.270;2022-08-16T10:38:15;27.60;44.20
46752;DHT22;32497;48.936;9.270;2022-08-16T10:43:16;27.40;45.60
46752;DHT22;32497;48.936;9.270;2022-08-16T10:48:19;27.60;47.30
46752;DHT22;32497;48.936;9.270;2022-08-16T10:53:20;27.80;46.70
46752;DHT22;32497;48.936;9.270;2022-08-16T10:58:21;28.30;46.00
46752;DHT22;32497;48.936;9.270;2022-08-16T11:03:23;28.30;46.60
46752;DHT22;32497;48.936;9.270;2022-08-16T11:08:24;28.80;41.60
46752;DHT22;32497;48.936;9.270;2022-08-16T11:13:26;29.80;41.20
46752;DHT22;32497;48.936;9.270;2022-08-16T11:18:29;29.70;40.20
46752;DHT22;32497;48.936;9.270;2022-08-16T11:23:30;29.60;43.60
46752;DHT22;32497;48.936;9.270;2022-08-16T11:28:32;28.70;40.20
46752;DHT22;32497;48.936;9.270;2022-08-16T11:33:34;28.80;43.20
46752;DHT22;32497;48.936;9.270;2022-08-16T11:38:35;28.20;43.80
46752;DHT22;32497;48.936;9.270;2022-08-16T11:43:38;27.50;43.50
46752;DHT22;32497;48.936;9.270;2022-08-16T11:48:40;27.60;45.40
46752;DHT22;32497;48.936;9.270;2022-08-16T11:53:41;27.90;42.60
46752;DHT22;32497;48.936;9.270;2022-08-16T11:58:42;28.40;46.40
46752;DHT22;32497;48.936;9.270;2022-08-16T12:03:45;28.00;41.50
46752;DHT22;32497;48.936;9.270;2022-08-16T12:08:46;27.80;43.40
46752;DHT22;32497;48.936;9.270;2022-08-16T12:13:47;27.70;44.60
46752;DHT22;32497;48.936;9.270;2022-08-16T12:18:50;28.00;43.30
46752;DHT22;32497;48.936;9.270;2022-08-16T12:23:51;27.20;42.40
46752;DHT22;32497;48.936;9.270;2022-08-16T12:28:52;26.30;44.60
46752;DHT22;32497;48.936;9.270;2022-08-16T12:33:54;26.30;46.60
46752;DHT22;32497;48.936;9.270;2022-08-16T12:38:56;27.50;43.40
46752;DHT22;32497;48.936;9.270;2022-08-16T12:43:57;29.00;39.50
46752;DHT22;32497;48.936;9.270;2022-08-16T12:49:01;28.70;41.00
46752;DHT22;32497;48.936;9.270;2022-08-16T12:54:05;27.70;44.50
46752;DHT22;32497;48.936;9.270;2022-08-16T12:59:09;28.20;47.00
46752;DHT22;32497;48.936;9.270;2022-08-16T13:04:12;29.40;43.40
46752;DHT22;32497;48.936;9.270;2022-08-16T13:09:13;30.20;42.20
46752;DHT22;32497;48.936;9.270;2022-08-16T13:14:15;30.80;37.90
46752;DHT22;32497;48.936;9.270;2022-08-16T13:19:17;30.70;35.50
46752;DHT22;32497;48.936;9.270;2022-08-16T13:24:18;30.80;35.00
46752;DHT22;32497;48.936;9.270;2022-08-16T13:29:19;30.90;41.70
46752;DHT22;32497;48.936;9.270;2022-08-16T13:34:22;31.30;33.90
46752;DHT22;32497;48.936;9.270;2022-08-16T13:39:23;31.70;35.90
46752;DHT22;32497;48.936;9.270;2022-08-16T13:44:24;32.60;34.70
46752;DHT22;32497;48.936;9.270;2022-08-16T13:49:26;32.30;33.90
46752;DHT22;32497;48.936;9.270;2022-08-16T13:54:28;32.80;32.20
46752;DHT22;32497;48.936;9.270;2022-08-16T13:59:29;32.70;34.90
46752;DHT22;32497;48.936;9.270;2022-08-16T14:04:33;32.20;32.80
46752;DHT22;32497;48.936;9.270;2022-08-16T14:09:35;32.70;37.60
46752;DHT22;32497;48.936;9.270;2022-08-16T14:14:36;32.80;33.70
46752;DHT22;32497;48.936;9.270;2022-08-16T14:19:38;32.30;32.60
46752;DHT22;32497;48.936;9.270;2022-08-16T14:24:39;31.60;36.10
46752;DHT22;32497;48.936;9.270;2022-08-16T14:29:40;31.00;33.40
46752;DHT22;32497;48.936;9.270;2022-08-16T14:34:43;30.70;38.30
46752;DHT22;32497;48.936;9.270;2022-08-16T14:39:44;30.80;33.80
46752;DHT22;32497;48.936;9.270;2022-08-16T14:44:46;31.00;33.20
46752;DHT22;32497;48.936;9.270;2022-08-16T14:49:48;31.50;36.90
46752;DHT22;32497;48.936;9.270;2022-08-16T14:54:51;31.50;33.10
46752;DHT22;32497;48.936;9.270;2022-08-16T14:59:54;31.60;32.80
46752;DHT22;32497;48.936;9.270;2022-08-16T15:04:56;31.50;34.10
46752;DHT22;32497;48.936;9.270;2022-08-16T15:09:57;31.70;31.90
46752;DHT22;32497;48.936;9.270;2022-08-16T15:14:58;31.30;33.50
46752;DHT22;32497;48.936;9.270;2022-08-16T15:20:02;31.20;35.50
46752;DHT22;32497;48.936;9.270;2022-08-16T15:25:07;31.30;33.50
46752;DHT22;32497;48.936;9.270;2022-08-16T15:30:09;32.10;36.40
46752;DHT22;32497;48.936;9.270;2022-08-16T15:35:13;32.50;32.50
46752;DHT22;32497;48.936;9.270;2022-08-16T15:40:14;32.60;34.40
46752;DHT22;32497;48.936;9.270;2022-08-16T15:45:16;32.70;34.00
46752;DHT22;32497;48.936;9.270;2022-08-16T15:50:18;32.80;33.40
46752;DHT22;32497;48.936;9.270;2022-08-16T15:55:19;32.40;34.50
46752;DHT22;32497;48.936;9.270;2022-08-16T16:00:21;32.50;32.80
46752;DHT22;32497;48.936;9.270;2022-08-16T16:05:23;32.50;34.00
46752;DHT22;32497;48.936;9.270;2022-08-16T16:10:25;32.30;32.00
46752;DHT22;32497;48.936;9.270;2022-08-16T16:15:29;32.10;33.40
46752;DHT22;32497;48.936;9.270;2022-08-16T16:20:32;32.00;33.20
46752;DHT22;32497;48.936;9.270;2022-08-16T16:25:33;31.40;33.80
46752;DHT22;32497;48.936;9.270;2022-08-16T16:30:35;31.20;33.50
46752;DHT22;32497;48.936;9.270;2022-08-16T16:35:37;30.80;37.40
46752;DHT22;32497;48.936;9.270;2022-08-16T16:40:38;30.50;36.50
46752;DHT22;32497;48.936;9.270;2022-08-16T16:45:40;30.10;37.00
46752;DHT22;32497;48.936;9.270;2022-08-16T16:50:43;29.50;36.30
46752;DHT22;32497;48.936;9.270;2022-08-16T16:55:45;29.30;36.40
46752;DHT22;32497;48.936;9.270;2022-08-16T17:00:46;29.20;38.90
46752;DHT22;32497;48.936;9.270;2022-08-16T17:05:48;28.80;38.70
46752;DHT22;32497;48.936;9.270;2022-08-16T17:10:49;28.60;39.40
46752;DHT22;32497;48.936;9.270;2022-08-16T17:15:52;28.50;40.70
46752;DHT22;32497;48.936;9.270;2022-08-16T17:20:55;28.20;40.60
46752;DHT22;32497;48.936;9.270;2022-08-16T17:25:56;28.10;41.10
46752;DHT22;32497;48.936;9.270;2022-08-16T17:30:57;27.90;41.50
46752;DHT22;32497;48.936;9.270;2022-08-16T17:35:59;27.80;41.50
46752;DHT22;32497;48.936;9.270;2022-08-16T17:41:00;27.60;41.50
46752;DHT22;32497;48.936;9.270;2022-08-16T17:46:06;27.40;42.20
46752;DHT22;32497;48.936;9.270;2022-08-16T17:51:09;27.40;42.00
46752;DHT22;32497;48.936;9.270;2022-08-16T17:56:10;27.20;43.00
46752;DHT22;32497;48.936;9.270;2022-08-16T18:01:11;27.00;41.70
46752;DHT22;32497;48.936;9.270;2022-08-16T18:06:17;26.90;42.60
46752;DHT22;32497;48.936;9.270;2022-08-16T18:11:18;26.80;42.90
46752;DHT22;32497;48.936;9.270;2022-08-16T18:16:19;26.70;43.90
46752;DHT22;32497;48.936;9.270;2022-08-16T18:21:22;26.50;44.40
46752;DHT22;32497;48.936;9.270;2022-08-16T18:26:23;26.30;45.20
46752;DHT22;32497;48.936;9.270;2022-08-16T18:31:24;26.20;45.90
46752;DHT22;32497;48.936;9.270;2022-08-16T18:36:27;26.10;47.10
46752;DHT22;32497;48.936;9.270;2022-08-16T18:41:28;25.90;47.80
46752;DHT22;32497;48.936;9.270;2022-08-16T18:46:29;25.70;47.30
46752;DHT22;32497;48.936;9.270;2022-08-16T18:51:31;25.50;48.70
46752;DHT22;32497;48.936;9.270;2022-08-16T18:56:33;25.30;48.40
46752;DHT22;32497;48.936;9.270;2022-08-16T19:01:34;25.20;47.70
46752;DHT22;32497;48.936;9.270;2022-08-16T19:06:36;25.00;47.80
46752;DHT22;32497;48.936;9.270;2022-08-16T19:11:37;25.00;48.50
46752;DHT22;32497;48.936;9.270;2022-08-16T19:16:38;24.90;48.60
46752;DHT22;32497;48.936;9.270;2022-08-16T19:21:40;24.80;48.00
46752;DHT22;32497;48.936;9.270;2022-08-16T19:26:41;24.70;48.80
46752;DHT22;32497;48.936;9.270;2022-08-16T19:31:42;24.60;48.30
46752;DHT22;32497;48.936;9.270;2022-08-16T19:36:45;24.60;48.10
46752;DHT22;32497;48.936;9.270;2022-08-16T19:41:47;24.50;49.60
46752;DHT22;32497;48.936;9.270;2022-08-16T19:46:49;24.40;49.50
46752;DHT22;32497;48.936;9.270;2022-08-16T19:51:51;24.30;48.70
46752;DHT22;32497;48.936;9.270;2022-08-16T19:56:52;24.20;50.50
46752;DHT22;32497;48.936;9.270;2022-08-16T20:01:53;24.20;49.10
46752;DHT22;32497;48.936;9.270;2022-08-16T20:06:56;24.10;49.20
46752;DHT22;32497;48.936;9.270;2022-08-16T20:11:57;24.00;49.90
46752;DHT22;32497;48.936;9.270;2022-08-16T20:16:58;23.90;50.20
46752;DHT22;32497;48.936;9.270;2022-08-16T20:22:03;23.90;50.30
46752;DHT22;32497;48.936;9.270;2022-08-16T20:27:06;23.70;50.10
46752;DHT22;32497;48.936;9.270;2022-08-16T20:32:09;23.70;50.80
46752;DHT22;32497;48.936;9.270;2022-08-16T20:37:12;23.00;51.10
46752;DHT22;32497;48.936;9.270;2022-08-16T20:42:16;22.80;51.80
46752;DHT22;32497;48.936;9.270;2022-08-16T20:47:18;22.70;52.90
46752;DHT22;32497;48.936;9.270;2022-08-16T20:52:23;22.60;53.50
46752;DHT22;32497;48.936;9.270;2022-08-16T20:57:24;22.40;52.60
46752;DHT22;32497;48.936;9.270;2022-08-16T21:02:26;22.20;53.30
46752;DHT22;32497;48.936;9.270;2022-08-16T21:07:28;22.20;53.40
46752;DHT22;32497;48.936;9.270;2022-08-16T21:12:29;22.20;55.40
46752;DHT22;32497;48.936;9.270;2022-08-16T21:17:30;22.20;53.50
46752;DHT22;32497;48.936;9.270;2022-08-16T21:22:32;22.20;54.90
46752;DHT22;32497;48.936;9.270;2022-08-16T21:27:34;22.20;55.00
46752;DHT22;32497;48.936;9.270;2022-08-16T21:32:35;22.20;54.10
46752;DHT22;32497;48.936;9.270;2022-08-16T21:37:37;22.20;54.60
46752;DHT22;32497;48.936;9.270;2022-08-16T21:42:40;22.20;54.40
46752;DHT22;32497;48.936;9.270;2022-08-16T21:47:42;21.90;54.40
46752;DHT22;32497;48.936;9.270;2022-08-16T21:52:44;21.80;54.30
46752;DHT22;32497;48.936;9.270;2022-08-16T21:57:45;21.30;55.70
46752;DHT22;32497;48.936;9.270;2022-08-16T22:02:47;21.10;57.20
46752;DHT22;32497;48.936;9.270;2022-08-16T22:07:49;21.10;57.30
46752;DHT22;32497;48.936;9.270;2022-08-16T22:12:51;21.10;57.40
46752;DHT22;32497;48.936;9.270;2022-08-16T22:17:53;21.10;57.00
46752;DHT22;32497;48.936;9.270;2022-08-16T22:23:06;20.90;57.00
46752;DHT22;32497;48.936;9.270;2022-08-16T22:28:07;20.80;59.00
46752;DHT22;32497;48.936;9.270;2022-08-16T22:33:10;20.60;58.80
46752;DHT22;32497;48.936;9.270;2022-08-16T22:38:12;20.30;58.70
46752;DHT22;32497;48.936;9.270;2022-08-16T22:43:14;20.20;59.10
46752;DHT22;32497;48.936;9.270;2022-08-16T22:48:16;20.20;59.20
46752;DHT22;32497;48.936;9.270;2022-08-16T22:53:18;20.20;60.00
46752;DHT22;32497;48.936;9.270;2022-08-16T22:58:19;20.20;60.00
46752;DHT22;32497;48.936;9.270;2022-08-16T23:03:20;20.10;60.10
46752;DHT22;32497;48.936;9.270;2022-08-16T23:08:25;20.10;60.50
46752;DHT22;32497;48.936;9.270;2022-08-16T23:13:26;20.20;60.20
46752;DHT22;32497;48.936;9.270;2022-08-16T23:18:28;20.20;60.00
46752;DHT22;32497;48.936;9.270;2022-08-16T23:23:31;20.20;60.60
46752;DHT22;32497;48.936;9.270;2022-08-16T23:28:32;20.20;60.70
46752;DHT22;32497;48.936;9.270;2022-08-16T23:33:33;20.00;60.90
46752;DHT22;32497;48.936;9.270;2022-08-16T23:38:35;19.90;61.60
46752;DHT22;32497;48.936;9.270;2022-08-16T23:43:38;19.80;61.30
46752;DHT22;32497;48.936;9.270;2022-08-16T23:48:40;19.70;62.20
46752;DHT22;32497;48.936;9.270;2022-08-16T23:53:43;19.70;61.70
46752;DHT22;32497;48.936;9.270;2022-08-16T23:58:46;19.70;61.60
